createdAt,value
2018-03-26T00:00:22.986Z,61.70
2018-03-26T00:01:22.967Z,62.80
2018-03-26T00:02:22.939Z,62.50
2018-03-26T00:03:22.906Z,61.40
2018-03-26T00:04:22.929Z,61.80
2018-03-26T00:05:22.896Z,62.40
2018-03-26T00:06:22.862Z,63.70
2018-03-26T00:07:22.884Z,66.80
2018-03-26T00:08:22.827Z,64.70
2018-03-26T00:09:22.813Z,65.10
2018-03-26T00:10:22.830Z,66.20
2018-03-26T00:11:22.805Z,67.70
2018-03-26T00:12:22.765Z,66.10
2018-03-26T00:13:22.751Z,66.10
2018-03-26T00:14:22.729Z,69.30
2018-03-26T00:15:22.759Z,67.00
2018-03-26T00:16:22.698Z,69.30
2018-03-26T00:17:22.680Z,70.90
2018-03-26T00:18:22.671Z,67.20
2018-03-26T00:19:22.642Z,70.40
2018-03-26T00:20:22.639Z,73.80
2018-03-26T00:21:22.623Z,71.40
2018-03-26T00:22:22.604Z,73.90
2018-03-26T00:23:22.620Z,75.40
2018-03-26T00:24:22.577Z,75.10
2018-03-26T00:25:22.549Z,76.90
2018-03-26T00:26:22.548Z,72.80
2018-03-26T00:27:22.518Z,77.20
2018-03-26T00:28:22.498Z,75.30
2018-03-26T00:29:22.491Z,74.70
2018-03-26T00:30:22.463Z,77.30
2018-03-26T00:31:22.463Z,78.70
2018-03-26T00:32:22.434Z,74.20
2018-03-26T00:33:22.420Z,78.00
2018-03-26T00:34:22.439Z,76.20
2018-03-26T00:35:22.405Z,75.50
2018-03-26T00:36:22.383Z,75.30
2018-03-26T00:37:22.348Z,80.60
2018-03-26T00:38:22.329Z,78.40
2018-03-26T00:39:22.332Z,79.50
2018-03-26T00:40:22.319Z,78.50
2018-03-26T00:41:22.278Z,77.30
2018-03-26T00:42:22.279Z,79.20
2018-03-26T00:43:22.276Z,78.30
2018-03-26T00:44:22.232Z,78.00
2018-03-26T00:45:22.217Z,80.10
2018-03-26T00:46:22.199Z,80.00
2018-03-26T00:47:22.197Z,80.70
2018-03-26T00:48:22.173Z,81.40
2018-03-26T00:49:22.143Z,83.00
2018-03-26T00:50:22.131Z,81.30
2018-03-26T00:51:22.133Z,84.20
2018-03-26T00:52:22.128Z,83.10
2018-03-26T00:53:22.082Z,82.20
2018-03-26T00:54:22.061Z,79.20
2018-03-26T00:55:22.047Z,85.10
2018-03-26T00:56:22.030Z,79.00
2018-03-26T00:57:22.030Z,83.90
2018-03-26T00:58:22.004Z,82.30
2018-03-26T00:59:21.977Z,79.70
2018-03-26T01:00:21.965Z,83.80
2018-03-26T01:01:21.989Z,83.90
2018-03-26T01:02:21.928Z,79.60
2018-03-26T01:03:21.923Z,85.20
2018-03-26T01:04:21.895Z,87.60
2018-03-26T01:05:21.880Z,85.80
2018-03-26T01:06:21.864Z,82.50
2018-03-26T01:07:42.851Z,83.00
2018-03-26T01:08:21.839Z,85.10
2018-03-26T01:09:21.819Z,85.50
2018-03-26T01:10:21.797Z,84.60
2018-03-26T01:11:21.775Z,86.20
2018-03-26T01:12:21.756Z,83.20
2018-03-26T01:13:21.757Z,82.10
2018-03-26T01:14:21.722Z,85.90
2018-03-26T01:15:21.719Z,88.40
2018-03-26T01:16:21.686Z,83.20
2018-03-26T01:17:21.689Z,86.70
2018-03-26T01:18:21.676Z,87.90
2018-03-26T01:19:21.658Z,86.10
2018-03-26T01:20:22.227Z,88.30
2018-03-26T01:21:21.608Z,91.50
2018-03-26T01:22:21.591Z,88.60
2018-03-26T01:23:21.590Z,90.00
2018-03-26T01:24:21.549Z,87.80
2018-03-26T01:25:21.533Z,87.10
2018-03-26T01:26:21.520Z,88.00
2018-03-26T01:27:21.506Z,87.10
2018-03-26T01:28:21.491Z,85.50
2018-03-26T01:29:21.487Z,82.70
2018-03-26T01:30:21.464Z,86.40
2018-03-26T01:31:21.440Z,83.10
2018-03-26T01:32:21.421Z,88.60
2018-03-26T01:33:21.409Z,85.30
2018-03-26T01:34:21.375Z,82.90
2018-03-26T01:35:21.380Z,84.20
2018-03-26T01:36:21.345Z,81.80
2018-03-26T01:37:21.336Z,81.10
2018-03-26T01:38:21.316Z,77.60
2018-03-26T01:39:21.295Z,80.40
2018-03-26T01:40:21.300Z,75.90
2018-03-26T01:41:21.263Z,75.80
2018-03-26T01:42:21.240Z,75.70
2018-03-26T01:43:21.236Z,73.60
2018-03-26T01:44:21.230Z,74.20
2018-03-26T01:45:21.191Z,74.20
2018-03-26T01:46:21.180Z,75.00
2018-03-26T01:47:21.161Z,74.30
2018-03-26T01:48:21.157Z,74.90
2018-03-26T01:49:21.122Z,74.20
2018-03-26T01:50:21.130Z,72.80
2018-03-26T01:51:21.093Z,76.60
2018-03-26T01:52:21.068Z,75.10
2018-03-26T01:53:21.052Z,70.40
2018-03-26T01:54:21.055Z,72.00
2018-03-26T01:55:21.033Z,73.00
2018-03-26T01:56:20.997Z,72.40
2018-03-26T01:57:20.984Z,71.80
2018-03-26T01:58:20.963Z,70.80
2018-03-26T01:59:20.944Z,71.60
2018-03-26T02:00:20.949Z,69.80
2018-03-26T02:01:20.923Z,69.10
2018-03-26T02:02:20.896Z,67.20
2018-03-26T02:03:20.910Z,65.30
2018-03-26T02:04:20.878Z,66.50
2018-03-26T02:05:20.843Z,69.30
2018-03-26T02:06:20.837Z,69.10
2018-03-26T02:07:20.818Z,66.90
2018-03-26T02:08:20.792Z,66.80
2018-03-26T02:09:20.798Z,65.70
2018-03-26T02:10:20.813Z,65.90
2018-03-26T02:11:20.738Z,64.40
2018-03-26T02:12:20.714Z,64.70
2018-03-26T02:13:20.700Z,64.30
2018-03-26T02:14:20.699Z,65.20
2018-03-26T02:15:20.692Z,61.50
2018-03-26T02:16:20.643Z,61.00
2018-03-26T02:17:20.635Z,60.50
2018-03-26T02:18:20.621Z,60.00
2018-03-26T02:19:20.601Z,58.00
2018-03-26T02:20:20.592Z,59.50
2018-03-26T02:21:20.564Z,56.90
2018-03-26T02:22:20.544Z,57.60
2018-03-26T02:23:20.541Z,58.40
2018-03-26T02:24:20.512Z,57.50
2018-03-26T02:25:20.504Z,56.70
2018-03-26T02:26:20.472Z,56.40
2018-03-26T02:27:20.475Z,56.90
2018-03-26T02:28:20.435Z,55.10
2018-03-26T02:29:20.419Z,57.00
2018-03-26T02:30:41.419Z,55.30
2018-03-26T02:31:20.386Z,54.30
2018-03-26T02:32:20.374Z,56.40
2018-03-26T02:33:20.353Z,49.90
2018-03-26T02:34:20.359Z,53.00
2018-03-26T02:35:20.344Z,54.60
2018-03-26T02:36:20.319Z,53.80
2018-03-26T02:37:20.297Z,52.20
2018-03-26T02:38:20.304Z,54.20
2018-03-26T02:39:20.257Z,50.60
2018-03-26T02:40:20.238Z,53.80
2018-03-26T02:41:20.218Z,55.00
2018-03-26T02:42:20.199Z,53.80
2018-03-26T02:43:20.183Z,52.70
2018-03-26T02:44:20.178Z,51.60
2018-03-26T02:45:20.145Z,56.80
2018-03-26T02:46:20.125Z,54.20
2018-03-26T02:47:20.105Z,52.80
2018-03-26T02:48:20.101Z,52.40
2018-03-26T02:49:20.086Z,52.30
2018-03-26T02:50:20.054Z,54.90
2018-03-26T02:51:20.044Z,53.30
2018-03-26T02:52:20.028Z,55.80
2018-03-26T02:53:20.006Z,54.60
2018-03-26T02:54:20.011Z,53.10
2018-03-26T02:55:20.004Z,54.70
2018-03-26T02:56:19.979Z,52.50
2018-03-26T02:57:19.943Z,53.70
2018-03-26T02:58:19.921Z,53.70
2018-03-26T02:59:19.899Z,56.30
2018-03-26T03:00:19.903Z,53.90
2018-03-26T03:01:19.867Z,54.60
2018-03-26T03:02:19.864Z,53.00
2018-03-26T03:03:19.829Z,54.60
2018-03-26T03:04:19.821Z,54.40
2018-03-26T03:05:19.799Z,54.10
2018-03-26T03:06:19.777Z,54.30
2018-03-26T03:07:19.764Z,55.10
2018-03-26T03:08:19.757Z,56.60
2018-03-26T03:09:19.727Z,55.30
2018-03-26T03:10:19.713Z,58.20
2018-03-26T03:11:19.695Z,54.60
2018-03-26T03:12:19.673Z,53.70
2018-03-26T03:13:19.674Z,56.50
2018-03-26T03:14:19.641Z,53.40
2018-03-26T03:15:19.619Z,59.80
2018-03-26T03:16:19.601Z,58.00
2018-03-26T03:17:19.590Z,56.00
2018-03-26T03:18:19.570Z,54.00
2018-03-26T03:19:19.579Z,57.90
2018-03-26T03:20:19.539Z,58.70
2018-03-26T03:21:19.519Z,58.40
2018-03-26T03:22:19.502Z,56.70
2018-03-26T03:23:19.486Z,57.10
2018-03-26T03:24:19.474Z,59.50
2018-03-26T03:25:19.446Z,56.30
2018-03-26T03:26:19.431Z,57.80
2018-03-26T03:27:19.404Z,59.30
2018-03-26T03:28:40.406Z,57.80
2018-03-26T03:29:19.374Z,56.60
2018-03-26T03:30:19.373Z,58.10
2018-03-26T03:31:19.342Z,60.10
2018-03-26T03:32:19.315Z,56.70
2018-03-26T03:33:19.304Z,58.60
2018-03-26T03:34:19.286Z,57.40
2018-03-26T03:35:19.279Z,58.60
2018-03-26T03:36:19.257Z,59.90
2018-03-26T03:37:19.230Z,59.30
2018-03-26T03:38:19.221Z,59.00
2018-03-26T03:39:19.199Z,59.50
2018-03-26T03:40:19.174Z,61.80
2018-03-26T03:41:19.171Z,61.80
2018-03-26T03:42:19.145Z,60.00
2018-03-26T03:43:19.129Z,60.20
2018-03-26T03:44:19.104Z,59.60
2018-03-26T03:45:19.089Z,62.00
2018-03-26T03:46:19.092Z,61.00
2018-03-26T03:47:19.064Z,59.60
2018-03-26T03:48:19.040Z,63.60
2018-03-26T03:49:19.021Z,60.20
2018-03-26T03:50:19.002Z,63.40
2018-03-26T03:51:18.988Z,61.30
2018-03-26T03:52:18.988Z,63.40
2018-03-26T03:53:18.944Z,64.20
2018-03-26T03:54:18.930Z,62.30
2018-03-26T03:55:18.914Z,63.20
2018-03-26T03:56:18.900Z,64.50
2018-03-26T03:57:18.895Z,67.30
2018-03-26T03:58:18.854Z,65.40
2018-03-26T03:59:18.847Z,66.10
2018-03-26T04:00:18.826Z,69.80
2018-03-26T04:01:18.813Z,65.00
2018-03-26T04:02:18.795Z,65.60
2018-03-26T04:03:18.785Z,69.30
2018-03-26T04:04:18.750Z,67.50
2018-03-26T04:05:18.729Z,70.90
2018-03-26T04:06:18.718Z,70.10
2018-03-26T04:07:18.699Z,70.90
2018-03-26T04:08:18.692Z,68.60
2018-03-26T04:09:18.680Z,73.00
2018-03-26T04:10:18.644Z,74.10
2018-03-26T04:11:18.623Z,75.00
2018-03-26T04:12:18.636Z,75.20
2018-03-26T04:13:18.603Z,75.20
2018-03-26T04:14:18.573Z,75.40
2018-03-26T04:15:18.552Z,76.10
2018-03-26T04:16:18.535Z,75.00
2018-03-26T04:17:18.531Z,78.40
2018-03-26T04:18:18.495Z,76.30
2018-03-26T04:19:18.495Z,77.00
2018-03-26T04:20:18.457Z,75.00
2018-03-26T04:21:18.444Z,78.30
2018-03-26T04:22:18.432Z,81.20
2018-03-26T04:23:18.410Z,77.10
2018-03-26T04:24:18.406Z,79.00
2018-03-26T04:25:18.372Z,76.30
2018-03-26T04:26:18.353Z,77.60
2018-03-26T04:27:18.344Z,82.50
2018-03-26T04:28:18.334Z,78.60
2018-03-26T04:29:18.313Z,80.10
2018-03-26T04:30:18.288Z,84.50
2018-03-26T04:31:18.275Z,80.50
2018-03-26T04:32:18.256Z,76.70
2018-03-26T04:33:18.251Z,82.60
2018-03-26T04:34:18.205Z,81.60
2018-03-26T04:35:18.208Z,81.70
2018-03-26T04:36:18.195Z,84.10
2018-03-26T04:37:18.162Z,79.70
2018-03-26T04:38:18.137Z,79.50
2018-03-26T04:39:18.121Z,80.50
2018-03-26T04:40:18.096Z,82.80
2018-03-26T04:41:18.098Z,81.60
2018-03-26T04:42:18.066Z,80.50
2018-03-26T04:43:18.041Z,85.60
2018-03-26T04:44:18.028Z,82.80
2018-03-26T04:45:18.003Z,85.70
2018-03-26T04:46:18.001Z,82.40
2018-03-26T04:47:17.986Z,84.60
2018-03-26T04:48:17.964Z,82.00
2018-03-26T04:49:17.936Z,82.90
2018-03-26T04:50:17.921Z,82.90
2018-03-26T04:51:17.904Z,80.30
2018-03-26T04:52:17.901Z,83.30
2018-03-26T04:53:17.894Z,83.10
2018-03-26T04:54:17.839Z,90.20
2018-03-26T04:55:17.827Z,89.60
2018-03-26T04:56:38.830Z,90.60
2018-03-26T04:57:17.792Z,92.50
2018-03-26T04:58:17.767Z,90.00
2018-03-26T04:59:17.748Z,85.50
2018-03-26T05:00:17.749Z,87.10
2018-03-26T05:01:17.716Z,88.70
2018-03-26T05:02:17.710Z,93.30
2018-03-26T05:03:17.680Z,95.40
2018-03-26T05:04:17.660Z,94.50
2018-03-26T05:05:17.642Z,96.40
2018-03-26T05:06:17.620Z,99.50
2018-03-26T05:07:17.601Z,98.10
2018-03-26T05:08:17.597Z,99.90
2018-03-26T05:09:17.571Z,98.40
2018-03-26T05:10:17.563Z,95.40
2018-03-26T05:11:17.524Z,99.00
2018-03-26T05:12:17.524Z,96.10
2018-03-26T05:13:17.492Z,96.90
2018-03-26T05:14:17.470Z,98.00
2018-03-26T05:15:17.455Z,104.10
2018-03-26T05:16:17.440Z,102.00
2018-03-26T05:17:17.431Z,101.20
2018-03-26T05:18:17.418Z,102.20
2018-03-26T05:19:17.397Z,94.90
2018-03-26T05:20:17.367Z,96.10
2018-03-26T05:21:17.359Z,94.40
2018-03-26T05:22:17.318Z,93.60
2018-03-26T05:23:17.309Z,94.50
2018-03-26T05:24:17.318Z,95.60
2018-03-26T05:25:17.288Z,91.40
2018-03-26T05:26:17.244Z,92.60
2018-03-26T05:27:17.229Z,95.50
2018-03-26T05:28:17.211Z,96.90
2018-03-26T05:29:17.206Z,97.40
2018-03-26T05:30:17.185Z,94.50
2018-03-26T05:31:17.152Z,95.60
2018-03-26T05:32:17.156Z,101.10
2018-03-26T05:33:17.124Z,94.20
2018-03-26T05:34:17.098Z,102.30
2018-03-26T05:35:17.087Z,104.50
2018-03-26T05:36:17.062Z,102.30
2018-03-26T05:37:17.045Z,102.30
2018-03-26T05:38:17.059Z,101.40
2018-03-26T05:39:17.002Z,101.30
2018-03-26T05:40:16.987Z,100.20
2018-03-26T05:41:16.976Z,100.70
2018-03-26T05:42:16.970Z,108.10
2018-03-26T05:43:16.954Z,107.60
2018-03-26T05:44:16.932Z,114.30
2018-03-26T05:45:16.891Z,112.60
2018-03-26T05:46:16.868Z,112.90
2018-03-26T05:47:16.872Z,103.20
2018-03-26T05:48:16.838Z,110.10
2018-03-26T05:49:16.836Z,110.30
2018-03-26T05:50:16.796Z,108.30
2018-03-26T05:51:16.799Z,110.80
2018-03-26T05:52:16.779Z,120.80
2018-03-26T05:53:16.768Z,115.60
2018-03-26T05:54:16.720Z,115.90
2018-03-26T05:55:16.723Z,126.10
2018-03-26T05:56:16.690Z,126.70
2018-03-26T05:57:16.665Z,119.40
2018-03-26T05:58:16.646Z,122.80
2018-03-26T05:59:16.650Z,118.00
2018-03-26T06:00:16.608Z,128.90
2018-03-26T06:01:16.611Z,128.50
2018-03-26T06:02:16.575Z,140.90
2018-03-26T06:03:16.555Z,136.00
2018-03-26T06:04:16.537Z,132.00
2018-03-26T06:05:16.519Z,132.30
2018-03-26T06:06:16.499Z,137.90
2018-03-26T06:07:16.497Z,135.80
2018-03-26T06:08:16.460Z,135.70
2018-03-26T06:09:16.448Z,140.50
2018-03-26T06:10:16.452Z,135.80
2018-03-26T06:11:16.403Z,136.00
2018-03-26T06:12:16.388Z,134.90
2018-03-26T06:13:16.368Z,127.80
2018-03-26T06:14:16.365Z,133.40
2018-03-26T06:15:16.334Z,131.90
2018-03-26T06:16:16.330Z,129.60
2018-03-26T06:17:16.302Z,130.10
2018-03-26T06:18:16.321Z,132.90
2018-03-26T06:19:16.253Z,137.40
2018-03-26T06:20:16.238Z,130.10
2018-03-26T06:21:16.236Z,136.20
2018-03-26T06:22:16.221Z,125.60
2018-03-26T06:23:16.185Z,123.80
2018-03-26T06:24:16.167Z,130.80
2018-03-26T06:25:16.140Z,119.70
2018-03-26T06:26:16.138Z,125.30
2018-03-26T06:27:16.126Z,117.80
2018-03-26T06:28:16.090Z,132.00
2018-03-26T06:29:16.083Z,123.80
2018-03-26T06:30:16.064Z,125.60
2018-03-26T06:31:16.038Z,128.40
2018-03-26T06:32:16.013Z,120.30
2018-03-26T06:33:16.017Z,129.00
2018-03-26T06:34:15.984Z,130.80
2018-03-26T06:35:15.963Z,133.30
2018-03-26T06:36:15.937Z,134.20
2018-03-26T06:37:15.924Z,131.90
2018-03-26T06:38:15.937Z,135.80
2018-03-26T06:39:15.884Z,123.90
2018-03-26T06:40:15.867Z,119.40
2018-03-26T06:41:15.851Z,121.20
2018-03-26T06:42:15.835Z,125.50
2018-03-26T06:43:15.842Z,115.00
2018-03-26T06:44:15.840Z,112.50
2018-03-26T06:45:15.782Z,124.30
2018-03-26T06:46:15.752Z,102.90
2018-03-26T06:47:15.734Z,101.70
2018-03-26T06:48:15.729Z,103.90
2018-03-26T06:49:15.709Z,101.40
2018-03-26T06:50:15.672Z,102.70
2018-03-26T06:51:15.661Z,97.70
2018-03-26T06:52:15.650Z,97.80
2018-03-26T06:53:15.628Z,95.00
2018-03-26T06:54:15.618Z,98.10
2018-03-26T06:55:15.588Z,97.10
2018-03-26T06:56:15.572Z,96.00
2018-03-26T06:57:15.559Z,92.00
2018-03-26T06:58:15.541Z,94.70
2018-03-26T06:59:15.530Z,92.90
2018-03-26T07:00:15.510Z,84.20
2018-03-26T07:01:15.485Z,90.50
2018-03-26T07:02:15.467Z,90.90
2018-03-26T07:03:15.439Z,89.70
2018-03-26T07:04:15.459Z,85.30
2018-03-26T07:05:15.434Z,91.20
2018-03-26T07:06:15.398Z,86.70
2018-03-26T07:07:15.366Z,90.90
2018-03-26T07:08:15.346Z,87.60
2018-03-26T07:09:15.337Z,97.60
2018-03-26T07:10:15.311Z,95.50
2018-03-26T07:11:15.316Z,97.00
2018-03-26T07:12:15.276Z,86.50
2018-03-26T07:13:15.273Z,90.70
2018-03-26T07:14:15.238Z,93.60
2018-03-26T07:15:15.240Z,94.80
2018-03-26T07:16:15.202Z,96.00
2018-03-26T07:17:15.187Z,95.90
2018-03-26T07:18:15.173Z,88.90
2018-03-26T07:19:15.142Z,93.40
2018-03-26T07:20:15.129Z,94.00
2018-03-26T07:21:15.132Z,96.70
2018-03-26T07:22:15.094Z,95.70
2018-03-26T07:23:15.080Z,87.40
2018-03-26T07:24:15.066Z,91.60
2018-03-26T07:25:15.035Z,86.20
2018-03-26T07:26:15.053Z,92.40
2018-03-26T07:27:15.005Z,84.30
2018-03-26T07:28:14.986Z,85.60
2018-03-26T07:29:14.971Z,83.80
2018-03-26T07:30:14.952Z,75.50
2018-03-26T07:31:14.948Z,83.80
2018-03-26T07:32:14.949Z,77.10
2018-03-26T07:33:14.893Z,74.90
2018-03-26T07:34:14.895Z,71.70
2018-03-26T07:35:14.866Z,74.80
2018-03-26T07:36:14.853Z,77.70
2018-03-26T07:37:14.855Z,77.70
2018-03-26T07:38:14.812Z,76.00
2018-03-26T07:39:14.784Z,78.40
2018-03-26T07:40:14.774Z,69.00
2018-03-26T07:41:14.799Z,73.40
2018-03-26T07:42:14.766Z,70.90
2018-03-26T07:43:14.717Z,70.60
2018-03-26T07:44:14.740Z,74.10
2018-03-26T07:45:14.716Z,70.20
2018-03-26T07:46:14.697Z,71.10
2018-03-26T07:47:14.668Z,70.00
2018-03-26T07:48:14.663Z,69.70
2018-03-26T07:49:14.654Z,69.60
2018-03-26T07:50:14.590Z,69.80
2018-03-26T07:51:14.614Z,67.10
2018-03-26T07:52:14.610Z,67.90
2018-03-26T07:53:14.532Z,66.20
2018-03-26T07:54:14.548Z,71.10
2018-03-26T07:55:14.538Z,74.80
2018-03-26T07:56:14.495Z,70.50
2018-03-26T07:57:14.497Z,65.80
2018-03-26T07:58:14.459Z,67.50
2018-03-26T07:59:14.442Z,67.30
2018-03-26T08:00:14.412Z,63.70
2018-03-26T08:01:14.419Z,66.00
2018-03-26T08:02:14.391Z,67.50
2018-03-26T08:03:14.360Z,65.40
2018-03-26T08:04:14.373Z,61.00
2018-03-26T08:05:14.340Z,61.90
2018-03-26T08:06:14.315Z,59.50
2018-03-26T08:07:14.290Z,53.30
2018-03-26T08:08:14.296Z,54.80
2018-03-26T08:09:14.248Z,52.70
2018-03-26T08:10:14.264Z,52.80
2018-03-26T08:11:14.260Z,52.70
2018-03-26T08:12:14.223Z,52.30
2018-03-26T08:13:14.183Z,53.20
2018-03-26T08:14:14.168Z,53.90
2018-03-26T08:15:14.149Z,52.10
2018-03-26T08:16:14.157Z,54.00
2018-03-26T08:17:14.191Z,51.40
2018-03-26T08:18:14.112Z,52.80
2018-03-26T08:19:14.093Z,53.10
2018-03-26T08:20:14.061Z,52.30
2018-03-26T08:21:14.034Z,53.50
2018-03-26T08:22:14.036Z,52.60
2018-03-26T08:23:14.039Z,54.10
2018-03-26T08:24:13.986Z,48.60
2018-03-26T08:25:13.967Z,51.70
2018-03-26T08:26:13.982Z,49.10
2018-03-26T08:27:13.926Z,48.40
2018-03-26T08:28:13.916Z,49.40
2018-03-26T08:29:13.901Z,49.40
2018-03-26T08:30:13.879Z,48.10
2018-03-26T08:31:13.888Z,46.40
2018-03-26T08:32:13.831Z,47.70
2018-03-26T08:33:13.846Z,49.00
2018-03-26T08:34:13.814Z,47.10
2018-03-26T08:35:13.786Z,44.50
2018-03-26T08:36:13.794Z,44.70
2018-03-26T08:37:13.765Z,39.60
2018-03-26T08:38:13.750Z,40.90
2018-03-26T08:39:13.739Z,38.70
2018-03-26T08:40:13.701Z,38.60
2018-03-26T08:41:13.681Z,35.40
2018-03-26T08:42:13.700Z,37.00
2018-03-26T08:43:13.665Z,37.10
2018-03-26T08:44:13.668Z,42.60
2018-03-26T08:45:13.627Z,44.30
2018-03-26T08:46:13.600Z,39.10
2018-03-26T08:47:13.593Z,38.20
2018-03-26T08:48:21.842Z,37.70
2018-03-26T08:49:13.539Z,36.20
2018-03-26T08:50:13.646Z,34.30
2018-03-26T08:51:13.508Z,34.00
2018-03-26T08:52:13.477Z,30.20
2018-03-26T08:53:13.459Z,30.70
2018-03-26T08:54:13.463Z,30.90
2018-03-26T08:55:13.427Z,33.40
2018-03-26T08:56:13.410Z,32.50
2018-03-26T08:57:13.393Z,34.50
2018-03-26T08:58:13.374Z,34.60
2018-03-26T08:59:13.386Z,32.90
2018-03-26T09:00:13.337Z,35.70
2018-03-26T09:01:13.322Z,32.70
2018-03-26T09:02:13.310Z,31.80
2018-03-26T09:03:13.288Z,31.40
2018-03-26T09:04:13.291Z,29.30
2018-03-26T09:05:13.287Z,30.60
2018-03-26T09:06:13.239Z,30.50
2018-03-26T09:07:13.239Z,28.80
2018-03-26T09:08:13.207Z,29.00
2018-03-26T09:09:13.208Z,27.80
2018-03-26T09:10:13.171Z,28.00
2018-03-26T09:11:13.170Z,25.30
2018-03-26T09:12:13.140Z,27.30
2018-03-26T09:13:13.117Z,27.00
2018-03-26T09:14:13.101Z,28.50
2018-03-26T09:15:13.114Z,27.70
2018-03-26T09:16:13.073Z,26.30
2018-03-26T09:17:13.080Z,28.20
2018-03-26T09:18:13.051Z,25.90
2018-03-26T09:19:13.024Z,27.40
2018-03-26T09:20:13.017Z,25.30
2018-03-26T09:21:12.998Z,23.90
2018-03-26T09:22:13.021Z,25.90
2018-03-26T09:23:12.966Z,25.90
2018-03-26T09:24:12.987Z,27.70
2018-03-26T09:25:12.933Z,25.10
2018-03-26T09:26:12.931Z,23.80
2018-03-26T09:27:12.907Z,22.60
2018-03-26T09:28:12.898Z,23.30
2018-03-26T09:29:12.915Z,23.60
2018-03-26T09:30:12.866Z,22.10
2018-03-26T09:31:12.862Z,22.40
2018-03-26T09:32:12.838Z,22.50
2018-03-26T09:33:12.876Z,23.00
2018-03-26T09:34:12.825Z,21.90
2018-03-26T09:35:12.809Z,22.70
2018-03-26T09:36:12.802Z,22.10
2018-03-26T09:37:12.793Z,20.30
2018-03-26T09:38:12.796Z,21.20
2018-03-26T09:39:12.772Z,19.00
2018-03-26T09:40:12.819Z,19.50
2018-03-26T09:41:12.762Z,20.60
2018-03-26T09:42:12.728Z,20.90
2018-03-26T09:43:12.722Z,22.30
2018-03-26T09:44:12.725Z,20.10
2018-03-26T09:45:12.712Z,22.70
2018-03-26T09:46:12.697Z,19.90
2018-03-26T09:47:12.693Z,20.20
2018-03-26T09:48:12.658Z,21.70
2018-03-26T09:49:12.655Z,19.60
2018-03-26T09:50:12.639Z,17.60
2018-03-26T09:51:12.641Z,20.60
2018-03-26T09:52:12.609Z,19.10
2018-03-26T09:53:12.625Z,19.50
2018-03-26T09:54:12.599Z,21.00
2018-03-26T09:55:12.582Z,19.40
2018-03-26T09:56:12.575Z,16.90
2018-03-26T09:57:12.586Z,15.50
2018-03-26T09:58:12.576Z,19.00
2018-03-26T09:59:12.560Z,19.80
2018-03-26T10:00:12.560Z,17.40
2018-03-26T10:01:12.584Z,16.10
2018-03-26T10:02:12.541Z,16.70
2018-03-26T10:03:12.515Z,16.70
2018-03-26T10:04:12.579Z,16.30
2018-03-26T10:05:12.506Z,15.70
2018-03-26T10:06:12.497Z,15.90
2018-03-26T10:07:12.482Z,13.70
2018-03-26T10:08:12.489Z,14.80
2018-03-26T10:09:12.483Z,11.30
2018-03-26T10:10:12.487Z,17.30
2018-03-26T10:11:12.454Z,12.40
2018-03-26T10:12:12.457Z,11.10
2018-03-26T10:13:12.447Z,12.90
2018-03-26T10:14:12.508Z,12.30
2018-03-26T10:15:12.442Z,10.90
2018-03-26T10:16:12.424Z,10.90
2018-03-26T10:17:12.415Z,13.00
2018-03-26T10:18:12.428Z,9.90
2018-03-26T10:19:12.403Z,9.90
2018-03-26T10:20:12.392Z,8.70
2018-03-26T10:21:12.399Z,8.70
2018-03-26T10:22:12.373Z,9.40
2018-03-26T10:23:12.373Z,8.80
2018-03-26T10:24:12.387Z,11.30
2018-03-26T10:25:12.406Z,10.40
2018-03-26T10:26:12.350Z,9.20
2018-03-26T10:27:12.354Z,11.20
2018-03-26T10:28:12.331Z,8.40
2018-03-26T10:29:12.324Z,8.90
2018-03-26T10:30:12.324Z,10.70
2018-03-26T10:31:12.395Z,8.50
2018-03-26T10:32:12.311Z,8.60
2018-03-26T10:33:12.330Z,7.00
2018-03-26T10:34:12.291Z,7.90
2018-03-26T10:35:12.279Z,8.40
2018-03-26T10:36:12.266Z,7.20
2018-03-26T10:37:12.261Z,8.10
2018-03-26T10:38:12.274Z,8.00
2018-03-26T10:39:12.265Z,8.00
2018-03-26T10:40:12.243Z,7.00
2018-03-26T10:41:12.229Z,8.50
2018-03-26T10:42:12.230Z,8.30
2018-03-26T10:43:12.217Z,8.20
2018-03-26T10:44:12.245Z,9.70
2018-03-26T10:45:12.209Z,8.00
2018-03-26T10:46:12.222Z,8.40
2018-03-26T10:47:12.189Z,8.00
2018-03-26T10:48:12.179Z,8.00
2018-03-26T10:49:12.207Z,6.90
2018-03-26T10:50:12.161Z,7.40
2018-03-26T10:51:12.173Z,8.30
2018-03-26T10:52:12.164Z,6.80
2018-03-26T10:53:12.141Z,8.20
2018-03-26T10:54:12.135Z,8.60
2018-03-26T10:55:12.125Z,7.20
2018-03-26T10:56:12.118Z,6.10
2018-03-26T10:57:12.112Z,7.00
2018-03-26T10:58:12.129Z,8.90
2018-03-26T10:59:12.091Z,9.10
2018-03-26T11:00:12.084Z,8.80
2018-03-26T11:01:12.078Z,7.60
2018-03-26T11:02:12.062Z,15.90
2018-03-26T11:03:12.078Z,12.70
2018-03-26T11:04:12.045Z,7.40
2018-03-26T11:05:12.033Z,10.40
2018-03-26T11:06:12.042Z,8.90
2018-03-26T11:07:12.020Z,9.90
2018-03-26T11:08:12.023Z,9.40
2018-03-26T11:09:12.006Z,8.20
2018-03-26T11:10:11.994Z,7.60
2018-03-26T11:11:11.982Z,6.20
2018-03-26T11:12:11.976Z,7.30
2018-03-26T11:13:11.985Z,8.50
2018-03-26T11:14:11.953Z,8.70
2018-03-26T11:15:11.954Z,8.90
2018-03-26T11:16:11.937Z,10.30
2018-03-26T11:17:11.933Z,9.40
2018-03-26T11:18:11.912Z,7.20
2018-03-26T11:19:11.906Z,7.30
2018-03-26T11:20:11.925Z,7.70
2018-03-26T11:21:11.892Z,7.90
2018-03-26T11:22:11.879Z,8.40
2018-03-26T11:23:11.894Z,7.80
2018-03-26T11:24:11.861Z,7.40
2018-03-26T11:25:11.860Z,4.80
2018-03-26T11:26:11.849Z,6.70
2018-03-26T11:27:11.857Z,6.50
2018-03-26T11:28:11.827Z,8.90
2018-03-26T11:29:11.816Z,8.20
2018-03-26T11:30:11.803Z,12.80
2018-03-26T11:31:11.800Z,5.50
2018-03-26T11:32:11.788Z,5.50
2018-03-26T11:33:11.798Z,4.40
2018-03-26T11:34:11.766Z,5.50
2018-03-26T11:35:11.786Z,6.30
2018-03-26T11:36:11.767Z,7.80
2018-03-26T11:37:11.743Z,5.70
2018-03-26T11:38:11.727Z,5.40
2018-03-26T11:39:11.722Z,7.40
2018-03-26T11:40:11.732Z,6.90
2018-03-26T11:41:11.698Z,6.60
2018-03-26T11:42:11.691Z,4.60
2018-03-26T11:43:11.674Z,7.60
2018-03-26T11:44:11.682Z,6.60
2018-03-26T11:45:11.658Z,7.70
2018-03-26T11:46:11.676Z,5.50
2018-03-26T11:47:11.642Z,5.50
2018-03-26T11:48:11.631Z,5.20
2018-03-26T11:49:11.621Z,6.20
2018-03-26T11:50:11.616Z,7.30
2018-03-26T11:51:11.608Z,5.00
2018-03-26T11:52:11.606Z,4.80
2018-03-26T11:53:11.580Z,4.90
2018-03-26T11:54:11.570Z,4.70
2018-03-26T11:55:11.611Z,4.80
2018-03-26T11:56:11.562Z,4.10
2018-03-26T11:57:11.545Z,6.00
2018-03-26T11:58:11.548Z,6.00
2018-03-26T11:59:11.545Z,4.70
2018-03-26T12:00:11.530Z,4.90
2018-03-26T12:01:11.538Z,4.10
2018-03-26T12:02:11.520Z,4.40
2018-03-26T12:03:11.484Z,4.40
2018-03-26T12:04:11.481Z,6.80
2018-03-26T12:05:11.474Z,5.40
2018-03-26T12:06:11.460Z,5.00
2018-03-26T12:07:11.459Z,4.80
2018-03-26T12:08:11.457Z,5.80
2018-03-26T12:09:11.438Z,4.60
2018-03-26T12:10:11.425Z,5.60
2018-03-26T12:11:11.415Z,4.70
2018-03-26T12:12:11.435Z,4.90
2018-03-26T12:13:11.412Z,5.70
2018-03-26T12:14:11.410Z,6.30
2018-03-26T12:15:11.382Z,4.90
2018-03-26T12:16:11.383Z,5.60
2018-03-26T12:17:11.407Z,6.00
2018-03-26T12:18:11.367Z,5.50
2018-03-26T12:19:11.358Z,5.30
2018-03-26T12:20:11.348Z,4.80
2018-03-26T12:21:11.355Z,6.10
2018-03-26T12:22:11.334Z,5.90
2018-03-26T12:23:11.342Z,5.70
2018-03-26T12:24:11.319Z,5.80
2018-03-26T12:25:11.327Z,4.10
2018-03-26T12:26:11.302Z,5.60
2018-03-26T12:27:11.292Z,3.70
2018-03-26T12:28:11.297Z,4.10
2018-03-26T12:29:11.274Z,6.20
2018-03-26T12:30:11.266Z,4.40
2018-03-26T12:31:11.275Z,4.60
2018-03-26T12:32:11.251Z,4.10
2018-03-26T12:33:11.256Z,4.80
2018-03-26T12:34:11.230Z,4.80
2018-03-26T12:35:11.224Z,4.40
2018-03-26T12:36:11.220Z,6.70
2018-03-26T12:37:11.218Z,4.80
2018-03-26T12:38:11.197Z,5.90
2018-03-26T12:39:11.210Z,5.60
2018-03-26T12:40:11.178Z,5.40
2018-03-26T12:41:11.159Z,5.20
2018-03-26T12:42:11.153Z,4.80
2018-03-26T12:43:11.150Z,5.40
2018-03-26T12:44:11.130Z,6.10
2018-03-26T12:45:11.141Z,4.00
2018-03-26T12:46:11.112Z,4.80
2018-03-26T12:47:11.109Z,4.40
2018-03-26T12:48:11.117Z,5.40
2018-03-26T12:49:11.113Z,4.80
2018-03-26T12:50:11.090Z,4.40
2018-03-26T12:51:11.098Z,5.40
2018-03-26T12:52:11.063Z,5.50
2018-03-26T12:53:11.046Z,5.20
2018-03-26T12:54:11.045Z,4.30